Time;durP1;ratioP1;P1;durP2;ratioP2;P2;SDS_P1;SDS_P2;PMS_P1;PMS_P2;Temp;Humidity;BMP_temperature;BMP_pressure;BME280_temperature;BME280_humidity;BME280_pressure;Samples;Min_cycle;Max_cycle;Signal;HPM_P1;HPM_P2
2022/04/20 00:00:38;;;;;;;9.50;4.90;;;6.90;99.90;;;;;;5091803;28;20218;-65
2022/04/20 00:03:05;;;;;;;6.83;4.77;;;6.90;99.90;;;;;;5091928;28;20196;-66
2022/04/20 00:05:33;;;;;;;7.93;4.97;;;6.90;99.90;;;;;;5091636;28;20200;-67
2022/04/20 00:08:00;;;;;;;6.63;4.83;;;6.90;99.90;;;;;;5091772;28;20208;-66
2022/04/20 00:10:27;;;;;;;6.70;4.80;;;6.90;99.90;;;;;;5091907;28;20643;-67
2022/04/20 00:12:54;;;;;;;6.47;4.40;;;6.90;99.90;;;;;;5091995;28;20200;-67
2022/04/20 00:15:21;;;;;;;6.27;4.63;;;6.80;99.90;;;;;;5091592;28;20216;-66
2022/04/20 00:17:48;;;;;;;7.50;4.70;;;6.90;99.90;;;;;;5091505;28;20196;-66
2022/04/20 00:20:15;;;;;;;6.20;4.63;;;6.90;99.90;;;;;;5091898;28;20211;-65
2022/04/20 00:22:43;;;;;;;6.27;4.73;;;6.80;99.90;;;;;;5091739;28;20665;-66
2022/04/20 00:25:10;;;;;;;6.63;4.83;;;6.80;99.90;;;;;;5091747;28;20227;-67
2022/04/20 00:27:38;;;;;;;8.93;4.80;;;6.90;99.90;;;;;;5091833;28;20204;-66
2022/04/20 00:30:07;;;;;;;7.30;5.07;;;6.80;99.90;;;;;;5091889;28;20200;-66
2022/04/20 00:32:33;;;;;;;6.00;4.63;;;6.80;99.90;;;;;;5091531;28;20200;-65
2022/04/20 00:35:00;;;;;;;8.83;5.20;;;6.80;99.90;;;;;;5091726;28;20620;-66
2022/04/20 00:37:27;;;;;;;7.37;5.07;;;6.80;99.90;;;;;;5091418;28;20210;-67
2022/04/20 00:39:55;;;;;;;6.60;4.70;;;6.90;99.90;;;;;;5092097;28;20604;-65
2022/04/20 00:42:23;;;;;;;6.83;4.73;;;6.80;99.90;;;;;;5091709;28;20204;-66
2022/04/20 00:44:51;;;;;;;7.33;4.97;;;6.80;99.90;;;;;;5091701;28;20205;-67
2022/04/20 00:47:19;;;;;;;8.93;5.20;;;6.90;99.90;;;;;;5095207;28;20386;-66
2022/04/20 00:49:48;;;;;;;7.30;4.83;;;6.80;99.90;;;;;;5095590;28;20204;-67
2022/04/20 00:52:15;;;;;;;8.07;5.67;;;6.80;99.90;;;;;;5095462;28;20206;-66
2022/04/20 00:54:42;;;;;;;7.57;5.57;;;6.80;99.90;;;;;;5095149;28;20707;-66
2022/04/20 00:57:12;;;;;;;8.43;5.20;;;6.80;99.90;;;;;;5095118;28;20678;-65
2022/04/20 00:59:40;;;;;;;7.87;5.50;;;6.80;99.90;;;;;;5095017;28;20195;-66
2022/04/20 01:02:07;;;;;;;8.87;5.50;;;6.80;99.90;;;;;;5095262;28;20553;-65
2022/04/20 01:04:33;;;;;;;9.20;5.13;;;6.80;99.90;;;;;;5095170;28;20212;-66
2022/04/20 01:07:01;;;;;;;7.80;5.07;;;6.80;99.90;;;;;;5095205;28;20662;-66
2022/04/20 01:09:28;;;;;;;7.33;4.97;;;6.80;99.90;;;;;;5095141;28;20212;-66
2022/04/20 01:11:56;;;;;;;9.00;5.30;;;6.80;99.90;;;;;;5095118;28;20210;-65
2022/04/20 01:14:25;;;;;;;6.67;4.77;;;6.80;99.90;;;;;;5094922;28;20689;-66
2022/04/20 01:16:51;;;;;;;6.90;4.90;;;6.80;99.90;;;;;;5094811;28;20203;-65
2022/04/20 01:19:19;;;;;;;7.53;4.97;;;6.80;99.90;;;;;;5094536;28;20211;-66
2022/04/20 01:21:47;;;;;;;6.90;4.90;;;6.80;99.90;;;;;;5094677;28;20295;-67
2022/04/20 01:24:14;;;;;;;7.23;4.97;;;6.80;99.90;;;;;;5094961;28;20200;-66
2022/04/20 01:26:41;;;;;;;7.83;5.37;;;6.90;99.90;;;;;;5094565;28;20200;-65
2022/04/20 01:29:08;;;;;;;7.37;5.10;;;6.90;99.90;;;;;;5094754;28;20206;-66
2022/04/20 01:31:36;;;;;;;7.33;5.07;;;6.80;99.90;;;;;;5094889;28;20204;-67
2022/04/20 01:34:03;;;;;;;6.27;4.90;;;6.90;99.90;;;;;;5094822;28;20293;-65
2022/04/20 01:36:30;;;;;;;7.57;5.03;;;6.80;99.90;;;;;;5094471;28;20689;-66
2022/04/20 01:38:58;;;;;;;7.70;5.43;;;6.80;99.90;;;;;;5094549;28;20204;-66
2022/04/20 01:41:25;;;;;;;8.10;4.77;;;6.80;99.90;;;;;;5094275;28;20670;-66
2022/04/20 01:43:52;;;;;;;6.73;5.00;;;6.80;99.90;;;;;;5094296;28;20208;-66
2022/04/20 01:46:18;;;;;;;6.17;4.80;;;6.80;99.90;;;;;;5094286;28;20699;-66
2022/04/20 01:48:45;;;;;;;8.37;5.00;;;6.80;99.90;;;;;;5094443;28;20278;-67
2022/04/20 01:53:57;;;;;;;8.03;5.27;;;6.80;99.90;;;;;;5094293;28;20607;-65
2022/04/20 01:56:24;;;;;;;7.90;4.90;;;6.80;99.90;;;;;;5093512;28;20586;-67
2022/04/20 01:58:51;;;;;;;7.47;5.13;;;6.80;99.90;;;;;;5093887;28;20226;-65
2022/04/20 02:04:02;;;;;;;7.27;4.90;;;6.90;99.90;;;;;;5093985;28;20187;-66
2022/04/20 02:06:29;;;;;;;7.20;4.90;;;6.90;99.90;;;;;;5093897;28;20204;-66
2022/04/20 02:08:56;;;;;;;6.60;5.00;;;6.90;99.90;;;;;;5093983;28;20211;-66
2022/04/20 02:11:24;;;;;;;9.37;5.77;;;6.90;99.90;;;;;;5093724;28;20211;-66
2022/04/20 02:13:51;;;;;;;8.37;5.27;;;6.90;99.90;;;;;;5093897;28;20203;-66
2022/04/20 02:16:17;;;;;;;10.47;5.60;;;6.90;99.90;;;;;;5093714;28;20231;-66
2022/04/20 02:18:44;;;;;;;7.90;5.10;;;6.90;99.90;;;;;;5093926;28;20564;-65
2022/04/20 02:21:11;;;;;;;9.10;5.40;;;6.90;99.90;;;;;;5093702;28;20207;-65
2022/04/20 02:23:38;;;;;;;7.97;5.30;;;6.80;99.90;;;;;;5093841;28;20207;-66
2022/04/20 02:26:05;;;;;;;7.97;5.53;;;6.80;99.90;;;;;;5093471;28;20224;-66
2022/04/20 02:28:33;;;;;;;7.83;4.77;;;6.80;99.90;;;;;;5093297;28;20204;-66
2022/04/20 02:31:00;;;;;;;7.63;5.00;;;6.80;99.90;;;;;;5093682;28;20567;-67
2022/04/20 02:33:26;;;;;;;6.33;4.57;;;6.80;99.90;;;;;;5093384;28;20214;-66
2022/04/20 02:35:53;;;;;;;6.60;4.40;;;6.80;99.90;;;;;;5093185;28;20219;-67
2022/04/20 02:38:20;;;;;;;6.50;4.63;;;6.80;99.90;;;;;;5093365;28;20615;-66
2022/04/20 02:40:50;;;;;;;6.37;4.50;;;6.80;99.90;;;;;;5093430;28;20684;-66
2022/04/20 02:43:17;;;;;;;6.47;4.60;;;6.80;99.90;;;;;;5093146;28;20211;-65
2022/04/20 02:45:45;;;;;;;6.53;4.40;;;6.80;99.90;;;;;;5092987;28;20215;-65
2022/04/20 02:48:12;;;;;;;5.53;4.13;;;6.80;99.90;;;;;;5092680;28;20709;-66
2022/04/20 02:50:39;;;;;;;6.63;4.43;;;6.80;99.90;;;;;;5093019;28;20215;-65
2022/04/20 02:53:07;;;;;;;6.67;4.13;;;6.80;99.90;;;;;;5093076;28;20200;-65
2022/04/20 02:55:34;;;;;;;5.53;4.00;;;6.80;99.90;;;;;;5093041;28;20600;-67
2022/04/20 02:58:01;;;;;;;5.73;4.37;;;6.80;99.90;;;;;;5093123;28;20696;-66
2022/04/20 03:00:27;;;;;;;6.57;4.30;;;6.80;99.90;;;;;;5093023;28;20208;-65
2022/04/20 03:02:55;;;;;;;5.90;4.20;;;6.80;99.90;;;;;;5092949;28;20211;-66
2022/04/20 03:05:22;;;;;;;6.20;4.07;;;6.80;99.90;;;;;;5092841;28;20196;-66
2022/04/20 03:07:49;;;;;;;6.10;4.20;;;6.80;99.90;;;;;;5092823;28;20735;-66
2022/04/20 03:10:16;;;;;;;5.20;4.00;;;6.70;99.90;;;;;;5093034;28;20564;-66
2022/04/20 03:12:43;;;;;;;5.03;3.67;;;6.70;99.90;;;;;;5092805;28;20430;-65
2022/04/20 03:15:10;;;;;;;6.97;4.60;;;6.70;99.90;;;;;;5092462;28;20234;-66
2022/04/20 03:17:37;;;;;;;8.23;4.60;;;6.70;99.90;;;;;;5092761;28;20204;-66
2022/04/20 03:20:06;;;;;;;8.23;4.70;;;6.70;99.90;;;;;;5092242;28;20295;-66
2022/04/20 03:22:33;;;;;;;7.33;4.40;;;6.60;99.90;;;;;;5092675;28;20204;-67
2022/04/20 03:25:00;;;;;;;7.33;4.57;;;6.70;99.90;;;;;;5092181;28;20585;-66
2022/04/20 03:27:27;;;;;;;9.70;4.57;;;6.70;99.90;;;;;;5092533;28;20203;-66
2022/04/20 03:29:54;;;;;;;5.27;3.80;;;6.70;99.90;;;;;;5092538;28;20566;-67
2022/04/20 03:32:21;;;;;;;9.60;4.80;;;6.60;99.90;;;;;;5092422;28;20208;-67
2022/04/20 03:34:48;;;;;;;10.10;4.40;;;6.60;99.90;;;;;;5092271;28;20315;-67
2022/04/20 03:37:16;;;;;;;7.07;4.70;;;6.60;99.90;;;;;;5092137;28;20200;-66
2022/04/20 03:39:43;;;;;;;5.90;4.40;;;6.60;99.90;;;;;;5092426;28;20562;-66
2022/04/20 03:42:10;;;;;;;5.97;4.27;;;6.70;99.90;;;;;;5092450;28;20212;-66
2022/04/20 03:44:38;;;;;;;5.63;4.17;;;6.70;99.90;;;;;;5092464;28;20654;-67
2022/04/20 03:47:05;;;;;;;8.57;4.90;;;6.70;99.90;;;;;;5091587;28;20255;-65
2022/04/20 03:49:32;;;;;;;6.67;4.50;;;6.70;99.90;;;;;;5090849;28;20200;-66
2022/04/20 03:52:01;;;;;;;9.80;5.00;;;6.70;99.90;;;;;;5092025;28;20204;-66
2022/04/20 03:54:29;;;;;;;6.97;4.80;;;6.70;99.90;;;;;;5092113;28;20210;-66
2022/04/20 03:57:04;;;;;;;6.93;4.40;;;6.70;99.90;;;;;;5091622;28;20230;-66
2022/04/20 03:59:32;;;;;;;5.70;4.40;;;6.70;99.90;;;;;;5092069;28;20192;-66
2022/04/20 04:01:59;;;;;;;6.83;4.30;;;6.70;99.90;;;;;;5091611;28;20199;-67
2022/04/20 04:04:26;;;;;;;6.00;4.17;;;6.70;99.90;;;;;;5092064;28;20328;-67
2022/04/20 04:06:53;;;;;;;6.40;4.60;;;6.70;99.90;;;;;;5092072;28;20673;-66
2022/04/20 04:09:20;;;;;;;5.83;4.30;;;6.70;99.90;;;;;;5091979;28;20620;-67
2022/04/20 04:11:48;;;;;;;7.73;4.93;;;6.70;99.90;;;;;;5092036;28;20204;-67
2022/04/20 04:14:16;;;;;;;5.10;4.00;;;6.70;99.90;;;;;;5091767;28;20211;-65
2022/04/20 04:16:43;;;;;;;5.90;4.30;;;6.70;99.90;;;;;;5091469;28;20228;-67
2022/04/20 04:19:11;;;;;;;8.03;4.23;;;6.70;99.90;;;;;;5091418;28;20204;-67
2022/04/20 04:21:39;;;;;;;7.10;4.43;;;6.80;99.90;;;;;;5095255;28;20294;-68
2022/04/20 04:24:07;;;;;;;5.07;4.10;;;6.80;99.90;;;;;;5095401;28;20200;-66
2022/04/20 04:26:34;;;;;;;5.73;4.20;;;6.80;99.90;;;;;;5095911;28;20200;-66
2022/04/20 04:29:02;;;;;;;6.23;4.30;;;6.90;99.90;;;;;;5095757;28;20688;-65
2022/04/20 04:31:30;;;;;;;9.50;5.00;;;6.90;99.90;;;;;;5095866;28;20568;-66
2022/04/20 04:33:56;;;;;;;7.00;4.83;;;6.90;99.90;;;;;;5095607;28;20200;-67
2022/04/20 04:36:23;;;;;;;7.03;4.80;;;6.90;99.90;;;;;;5095566;28;20633;-65
2022/04/20 04:38:50;;;;;;;6.03;4.50;;;6.90;99.90;;;;;;5095459;28;20567;-67
2022/04/20 04:41:17;;;;;;;7.50;4.77;;;6.90;99.90;;;;;;5095626;28;20561;-66
2022/04/20 04:43:43;;;;;;;6.77;4.87;;;6.90;99.90;;;;;;5095199;28;20207;-66
2022/04/20 04:48:56;;;;;;;8.07;5.20;;;7.00;99.90;;;;;;5095167;28;20200;-66
2022/04/20 04:51:22;;;;;;;7.03;4.90;;;7.00;99.90;;;;;;5095317;28;20207;-66
2022/04/20 04:53:49;;;;;;;9.43;4.77;;;7.00;99.90;;;;;;5095324;28;20200;-65
2022/04/20 04:56:16;;;;;;;9.40;5.17;;;7.10;99.90;;;;;;5094875;28;20220;-66
2022/04/20 04:58:43;;;;;;;8.57;4.67;;;7.10;99.90;;;;;;5095321;28;20565;-66
2022/04/20 05:01:11;;;;;;;6.70;4.93;;;7.10;99.90;;;;;;5095210;28;20675;-67
2022/04/20 05:03:38;;;;;;;7.23;4.43;;;7.20;99.90;;;;;;5094970;28;20208;-67
2022/04/20 05:06:05;;;;;;;7.50;4.30;;;7.20;99.90;;;;;;5094667;28;20208;-67
2022/04/20 05:08:31;;;;;;;6.07;4.70;;;7.20;99.90;;;;;;5094853;28;20295;-68
2022/04/20 05:10:58;;;;;;;7.50;4.90;;;7.30;99.90;;;;;;5094961;28;20208;-66
2022/04/20 05:13:25;;;;;;;6.17;4.33;;;7.30;99.90;;;;;;5094991;28;20204;-66
2022/04/20 05:15:52;;;;;;;7.23;4.67;;;7.30;99.90;;;;;;5094718;28;20223;-66
2022/04/20 05:18:20;;;;;;;8.67;4.80;;;7.40;99.90;;;;;;5094737;28;20212;-66
2022/04/20 05:20:47;;;;;;;6.73;4.83;;;7.40;99.90;;;;;;5094994;28;20658;-67
2022/04/20 05:23:13;;;;;;;7.33;4.80;;;7.50;99.90;;;;;;5094892;28;20559;-66
2022/04/20 05:25:40;;;;;;;7.83;5.20;;;7.50;99.90;;;;;;5094682;28;20621;-65
2022/04/20 05:28:07;;;;;;;9.20;5.00;;;7.60;99.90;;;;;;5094814;28;20204;-66
2022/04/20 05:30:34;;;;;;;6.60;4.70;;;7.60;99.90;;;;;;5094625;28;20292;-65
2022/04/20 05:33:01;;;;;;;7.33;4.77;;;7.60;99.90;;;;;;5093222;28;20208;-66
2022/04/20 05:35:29;;;;;;;8.97;5.07;;;7.70;99.90;;;;;;5094381;28;20200;-66
2022/04/20 05:43:25;;;;;;;9.30;5.57;;;7.60;99.90;;;;;;5094385;28;20607;-68
2022/04/20 05:45:52;;;;;;;7.83;5.30;;;7.70;99.90;;;;;;5094483;28;20196;-67
2022/04/20 05:48:19;;;;;;;7.63;5.37;;;7.80;99.90;;;;;;5094100;28;20713;-71
2022/04/20 05:50:47;;;;;;;8.90;5.43;;;7.80;99.90;;;;;;5094306;28;20211;-66
2022/04/20 05:53:14;;;;;;;8.17;5.53;;;7.80;99.90;;;;;;5094223;28;20670;-67
2022/04/20 05:55:41;;;;;;;7.70;5.30;;;7.90;99.90;;;;;;5093744;28;20214;-69
2022/04/20 05:58:08;;;;;;;6.73;4.93;;;7.90;99.90;;;;;;5094851;28;20208;-67
2022/04/20 06:00:35;;;;;;;8.10;5.20;;;8.00;99.90;;;;;;5094303;28;20207;-66
2022/04/20 06:03:02;;;;;;;10.77;5.63;;;8.10;99.90;;;;;;5093886;28;20230;-67
2022/04/20 06:05:29;;;;;;;8.27;5.70;;;8.10;99.90;;;;;;5094190;28;20211;-66
2022/04/20 06:07:57;;;;;;;6.97;4.90;;;8.10;99.90;;;;;;5093904;28;20735;-68
2022/04/20 06:10:24;;;;;;;7.50;5.40;;;8.10;99.90;;;;;;5093974;28;20558;-67
2022/04/20 06:12:51;;;;;;;6.80;5.10;;;8.20;99.90;;;;;;5093617;28;20214;-67
2022/04/20 06:15:18;;;;;;;6.87;4.97;;;8.30;99.90;;;;;;5093804;28;20211;-68
2022/04/20 06:17:44;;;;;;;8.90;5.03;;;8.30;99.90;;;;;;5093635;28;20315;-67
2022/04/20 06:20:12;;;;;;;8.53;5.10;;;8.40;99.90;;;;;;5093871;28;20200;-65
2022/04/20 06:22:38;;;;;;;8.93;4.50;;;8.50;99.90;;;;;;5093565;28;20204;-65
2022/04/20 06:25:08;;;;;;;7.93;5.23;;;8.60;99.90;;;;;;5093638;28;20230;-66
2022/04/20 06:27:36;;;;;;;8.00;5.10;;;8.70;99.90;;;;;;5093522;28;20204;-66
2022/04/20 06:30:04;;;;;;;8.33;5.07;;;8.80;99.90;;;;;;5093442;28;20226;-68
2022/04/20 06:32:31;;;;;;;7.83;5.00;;;8.80;99.90;;;;;;5093562;28;20204;-68
2022/04/20 06:34:58;;;;;;;7.40;5.10;;;8.90;99.90;;;;;;5093458;28;20206;-67
2022/04/20 06:37:25;;;;;;;9.40;5.27;;;9.00;99.90;;;;;;5093325;28;20576;-67
2022/04/20 06:39:54;;;;;;;7.97;5.03;;;9.00;99.90;;;;;;5093191;28;20207;-67
2022/04/20 06:42:22;;;;;;;6.57;4.60;;;9.10;99.90;;;;;;5092833;28;20302;-67
2022/04/20 06:44:49;;;;;;;9.40;5.00;;;9.10;99.90;;;;;;5092866;28;20658;-67
2022/04/20 06:47:16;;;;;;;6.97;4.60;;;9.10;99.90;;;;;;5092932;28;20588;-67
2022/04/20 06:49:43;;;;;;;8.17;5.17;;;9.20;99.90;;;;;;5092962;28;20204;-67
2022/04/20 07:00:25;;;;;;;10.63;5.07;;;9.40;99.90;;;;;;5092947;28;20669;-66
2022/04/20 07:03:00;;;;;;;7.83;5.40;;;9.40;99.90;;;;;;5092772;28;20200;-66
2022/04/20 07:05:26;;;;;;;6.70;4.80;;;9.40;99.90;;;;;;5092930;28;20194;-66
2022/04/20 07:07:53;;;;;;;7.67;5.03;;;9.40;99.90;;;;;;5092954;28;20238;-65
2022/04/20 07:10:20;;;;;;;8.10;4.77;;;9.40;99.90;;;;;;5092660;28;20208;-65
2022/04/20 07:12:48;;;;;;;5.87;4.63;;;9.40;99.90;;;;;;5092415;28;20210;-66
2022/04/20 07:15:15;;;;;;;7.17;5.13;;;9.30;99.90;;;;;;5092523;28;20223;-66
2022/04/20 07:17:42;;;;;;;7.03;4.47;;;9.30;99.90;;;;;;5092135;28;20224;-66
2022/04/20 07:20:10;;;;;;;8.03;4.93;;;9.30;99.90;;;;;;5092597;28;20200;-67
2022/04/20 07:22:37;;;;;;;7.20;5.03;;;9.30;99.90;;;;;;5092443;28;20689;-66
2022/04/20 07:25:05;;;;;;;7.13;4.73;;;9.40;99.90;;;;;;5092559;28;20701;-67
2022/04/20 07:27:32;;;;;;;7.43;5.10;;;9.40;99.90;;;;;;5092594;28;20338;-66
2022/04/20 07:30:00;;;;;;;9.03;5.17;;;9.40;99.90;;;;;;5092610;28;20207;-67
2022/04/20 07:32:27;;;;;;;7.80;4.80;;;9.40;99.90;;;;;;5092116;28;20200;-69
2022/04/20 07:34:54;;;;;;;8.13;5.17;;;9.40;99.90;;;;;;5092098;28;20572;-67
2022/04/20 07:37:21;;;;;;;6.73;4.93;;;9.50;99.90;;;;;;5092563;28;20685;-68
2022/04/20 07:39:48;;;;;;;8.07;5.00;;;9.50;99.90;;;;;;5092277;28;20249;-68
2022/04/20 07:42:15;;;;;;;7.93;5.23;;;9.60;99.90;;;;;;5092484;28;20208;-69
2022/04/20 07:44:42;;;;;;;8.93;5.50;;;9.60;99.90;;;;;;5092363;28;20210;-67
2022/04/20 07:47:10;;;;;;;9.20;4.90;;;9.60;99.90;;;;;;5091945;28;20238;-68
2022/04/20 07:52:21;;;;;;;11.27;5.40;;;9.60;99.90;;;;;;5092054;28;20310;-67
2022/04/20 07:54:48;;;;;;;7.63;5.07;;;9.60;99.90;;;;;;5091771;28;20214;-66
2022/04/20 07:57:15;;;;;;;6.93;4.97;;;9.60;99.90;;;;;;5091689;28;20219;-67
2022/04/20 07:59:42;;;;;;;8.00;5.00;;;9.70;99.90;;;;;;5091776;28;20203;-67
2022/04/20 08:02:11;;;;;;;8.03;5.00;;;9.60;99.90;;;;;;5091797;28;20204;-67
2022/04/20 08:04:37;;;;;;;8.10;4.90;;;9.60;99.90;;;;;;5092005;28;20295;-67
2022/04/20 08:07:05;;;;;;;8.73;5.20;;;9.60;99.90;;;;;;5091872;28;20195;-66
2022/04/20 08:09:32;;;;;;;7.83;5.10;;;9.60;99.90;;;;;;5091985;28;20211;-68
2022/04/20 08:11:59;;;;;;;8.47;5.13;;;9.50;99.90;;;;;;5092019;28;20202;-67
2022/04/20 08:14:25;;;;;;;7.80;5.03;;;9.60;99.90;;;;;;5091794;28;20219;-68
2022/04/20 08:16:52;;;;;;;10.57;4.37;;;9.60;99.90;;;;;;5091839;28;20224;-65
2022/04/20 08:19:21;;;;;;;7.13;5.03;;;9.60;99.90;;;;;;5091709;28;20210;-67
2022/04/20 08:21:47;;;;;;;7.33;4.60;;;9.60;99.90;;;;;;5092477;28;20207;-67
2022/04/20 08:24:14;;;;;;;7.00;4.50;;;9.70;99.90;;;;;;5091902;28;20593;-67
2022/04/20 08:26:41;;;;;;;6.63;4.40;;;9.70;99.90;;;;;;5091870;28;20200;-66
2022/04/20 08:29:10;;;;;;;6.63;4.67;;;9.80;99.90;;;;;;5091837;28;20309;-67
2022/04/20 08:31:37;;;;;;;6.47;4.40;;;9.90;99.90;;;;;;5091993;28;20239;-67
2022/04/20 08:34:03;;;;;;;7.30;5.00;;;9.80;99.90;;;;;;5091878;28;20200;-66
2022/04/20 08:36:32;;;;;;;7.60;5.10;;;9.80;99.90;;;;;;5091681;28;20661;-66
2022/04/20 08:38:58;;;;;;;8.60;5.20;;;9.90;99.90;;;;;;5091913;28;20200;-66
2022/04/20 08:41:25;;;;;;;7.00;4.70;;;10.00;99.90;;;;;;5091399;28;20207;-66
2022/04/20 08:43:53;;;;;;;5.47;4.17;;;10.00;99.90;;;;;;5091751;28;20226;-68
2022/04/20 08:46:20;;;;;;;5.97;4.10;;;10.00;99.90;;;;;;5091597;28;20560;-67
2022/04/20 08:48:46;;;;;;;5.93;4.10;;;10.10;99.90;;;;;;5091804;28;20196;-66
2022/04/20 08:51:14;;;;;;;6.63;4.60;;;10.00;99.90;;;;;;5091848;28;20290;-66
2022/04/20 08:53:42;;;;;;;6.57;4.30;;;10.10;99.90;;;;;;5091421;28;20215;-67
2022/04/20 08:58:55;;;;;;;5.80;4.00;;;10.30;99.90;;;;;;5091443;28;20183;-66
2022/04/20 09:01:21;;;;;;;7.47;4.03;;;10.30;99.90;;;;;;5091598;28;20681;-67
2022/04/20 09:03:48;;;;;;;5.70;3.90;;;10.40;99.90;;;;;;5091447;28;20211;-66
2022/04/20 09:06:17;;;;;;;5.33;4.00;;;10.50;99.90;;;;;;5092468;28;20208;-67
2022/04/20 09:08:45;;;;;;;4.73;3.90;;;10.50;99.90;;;;;;5095202;28;20196;-67
2022/04/20 09:11:12;;;;;;;6.03;4.20;;;10.50;99.90;;;;;;5094861;28;20215;-66
2022/04/20 09:13:43;;;;;;;5.97;3.80;;;10.50;99.90;;;;;;5095242;28;20681;-67
2022/04/20 09:16:12;;;;;;;6.37;4.10;;;10.50;99.90;;;;;;5095229;28;20649;-66
2022/04/20 09:18:41;;;;;;;5.13;3.73;;;10.60;99.90;;;;;;5095027;28;20254;-66
2022/04/20 09:21:09;;;;;;;4.87;3.73;;;10.60;99.90;;;;;;5094980;28;20286;-66
2022/04/20 09:23:37;;;;;;;5.90;3.87;;;10.60;99.90;;;;;;5094927;28;20274;-67
2022/04/20 09:26:10;;;;;;;6.17;4.47;;;10.70;99.90;;;;;;5094989;28;20324;-67
2022/04/20 09:28:40;;;;;;;5.43;4.13;;;10.60;99.90;;;;;;5094568;28;20200;-66
2022/04/20 09:31:09;;;;;;;5.70;4.17;;;10.70;99.90;;;;;;5094857;28;20192;-66
2022/04/20 09:33:44;;;;;;;6.40;4.33;;;10.70;99.90;;;;;;5094432;28;20261;-67
2022/04/20 09:36:11;;;;;;;7.43;4.40;;;10.70;99.90;;;;;;5094138;28;20200;-66
2022/04/20 09:38:41;;;;;;;6.70;4.50;;;10.70;99.90;;;;;;5094484;28;20227;-66
2022/04/20 09:41:10;;;;;;;6.30;4.47;;;10.70;99.90;;;;;;5094445;28;20208;-66
2022/04/20 09:43:38;;;;;;;6.10;4.27;;;10.60;99.90;;;;;;5094670;28;20203;-67
2022/04/20 09:48:50;;;;;;;7.73;4.20;;;10.70;99.90;;;;;;5094534;28;20217;-67
2022/04/20 09:48:52;;;;;;;7.40;4.50;;;10.70;99.90;;;;;;5094026;28;20254;-67
2022/04/20 09:51:22;;;;;;;6.60;4.03;;;10.70;99.90;;;;;;5094142;28;20199;-67
2022/04/20 09:53:50;;;;;;;8.57;4.37;;;10.70;99.90;;;;;;5094318;28;20214;-67
2022/04/20 09:56:23;;;;;;;6.53;4.30;;;10.70;99.90;;;;;;5094109;28;20203;-68
2022/04/20 09:58:59;;;;;;;6.17;4.30;;;10.80;99.90;;;;;;5094137;28;20214;-66
2022/04/20 10:01:29;;;;;;;7.43;4.70;;;10.70;99.90;;;;;;5093793;28;20188;-67
2022/04/20 10:03:56;;;;;;;6.67;4.27;;;10.70;99.90;;;;;;5093987;28;20188;-66
2022/04/20 10:06:23;;;;;;;7.63;4.50;;;10.70;99.90;;;;;;5093570;28;20204;-66
2022/04/20 10:08:50;;;;;;;6.37;4.43;;;10.80;99.90;;;;;;5093889;28;20200;-66
2022/04/20 10:11:17;;;;;;;11.73;4.33;;;10.90;99.90;;;;;;5093949;28;20212;-65
2022/04/20 10:16:05;;;;;;;6.40;4.47;;;10.90;99.90;;;;;;5093888;28;20547;-66
2022/04/20 10:16:33;;;;;;;7.13;4.77;;;10.90;99.90;;;;;;5093883;28;20192;-68
2022/04/20 10:19:01;;;;;;;6.33;4.90;;;11.00;99.90;;;;;;5093074;28;20685;-68
2022/04/20 10:21:30;;;;;;;7.57;4.93;;;10.90;99.90;;;;;;5093698;28;20239;-66
2022/04/20 10:24:05;;;;;;;6.57;4.67;;;10.90;99.90;;;;;;5093655;28;20312;-67
2022/04/20 10:26:34;;;;;;;5.77;4.37;;;10.80;99.90;;;;;;5093623;28;20537;-67
2022/04/20 10:29:10;;;;;;;5.63;4.63;;;10.80;99.90;;;;;;5093010;28;20208;-66
2022/04/20 10:31:43;;;;;;;7.67;4.57;;;10.80;99.90;;;;;;5093562;28;20192;-68
2022/04/20 10:34:14;;;;;;;7.23;4.77;;;10.80;99.90;;;;;;5093160;28;20192;-67
2022/04/20 10:36:41;;;;;;;6.40;4.90;;;10.90;99.90;;;;;;5093525;28;20635;-66
2022/04/20 10:39:19;;;;;;;7.07;4.73;;;11.00;99.90;;;;;;5093186;28;20243;-67
2022/04/20 10:42:20;;;;;;;7.03;4.93;;;11.00;99.90;;;;;;5092906;28;20205;-66
2022/04/20 10:44:56;;;;;;;7.47;4.43;;;11.00;99.90;;;;;;5093364;28;20203;-68
2022/04/20 10:47:26;;;;;;;7.10;4.60;;;11.00;99.90;;;;;;5092897;28;20725;-67
2022/04/20 10:49:54;;;;;;;6.43;4.57;;;11.00;99.90;;;;;;5092807;28;20192;-66
2022/04/20 10:52:25;;;;;;;5.93;4.10;;;11.00;99.90;;;;;;5093138;28;20214;-66
2022/04/20 10:54:52;;;;;;;6.33;4.03;;;11.00;99.90;;;;;;5093056;28;20200;-66
2022/04/20 10:57:19;;;;;;;5.87;4.50;;;11.00;99.90;;;;;;5092649;28;20204;-67
2022/04/20 11:00:24;;;;;;;7.20;4.63;;;11.10;99.90;;;;;;5093025;28;20208;-68
2022/04/20 11:02:54;;;;;;;6.53;4.37;;;11.10;99.90;;;;;;5092757;28;20188;-69
2022/04/20 11:05:22;;;;;;;5.90;4.30;;;11.10;99.90;;;;;;5092971;28;20568;-66
2022/04/20 11:08:08;;;;;;;7.23;4.50;;;11.10;99.90;;;;;;5092971;28;20667;-67
2022/04/20 11:10:40;;;;;;;5.80;4.10;;;11.10;99.90;;;;;;5092805;28;20200;-66
2022/04/20 11:19:05;;;;;;;6.67;4.03;;;11.10;99.90;;;;;;5092531;28;20215;-66
2022/04/20 11:21:32;;;;;;;6.47;4.30;;;11.20;99.90;;;;;;5093806;28;20210;-66
2022/04/20 11:24:03;;;;;;;6.07;3.93;;;11.20;99.90;;;;;;5093200;28;20238;-66
2022/04/20 11:26:33;;;;;;;6.07;4.27;;;11.30;99.90;;;;;;5093000;28;20208;-68
2022/04/20 11:29:03;;;;;;;5.37;3.80;;;11.30;99.90;;;;;;5092133;28;20646;-66
2022/04/20 11:31:37;;;;;;;6.43;4.23;;;11.30;99.90;;;;;;5091933;28;20233;-66
2022/04/20 11:34:06;;;;;;;6.70;4.17;;;11.30;99.90;;;;;;5092176;28;20188;-67
2022/04/20 11:36:33;;;;;;;6.97;4.50;;;11.30;99.90;;;;;;5092518;28;20208;-66
2022/04/20 11:39:01;;;;;;;6.33;4.30;;;11.40;99.90;;;;;;5092201;28;20231;-66
2022/04/20 11:41:28;;;;;;;7.63;4.60;;;11.40;99.90;;;;;;5092486;28;20204;-66
2022/04/20 11:43:55;;;;;;;9.17;4.97;;;11.60;99.90;;;;;;5091861;28;20208;-66
2022/04/20 11:46:22;;;;;;;6.83;4.50;;;11.70;99.90;;;;;;5092155;28;20219;-67
2022/04/20 11:48:51;;;;;;;7.23;4.53;;;11.80;99.90;;;;;;5092061;28;20231;-66
2022/04/20 11:51:23;;;;;;;6.57;4.53;;;12.00;99.90;;;;;;5092016;28;20208;-66
2022/04/20 11:53:50;;;;;;;6.73;4.80;;;12.10;99.90;;;;;;5092145;28;20193;-66
2022/04/20 11:56:17;;;;;;;5.90;4.37;;;12.20;99.90;;;;;;5092199;28;20207;-66
2022/04/20 11:58:49;;;;;;;5.73;4.10;;;12.30;99.90;;;;;;5092093;28;20231;-67
2022/04/20 12:01:17;;;;;;;6.13;4.30;;;12.30;99.90;;;;;;5092156;28;20192;-66
2022/04/20 12:03:45;;;;;;;6.83;4.73;;;12.30;99.90;;;;;;5091758;28;20277;-66
2022/04/20 12:06:12;;;;;;;6.40;4.40;;;12.30;99.90;;;;;;5091912;28;20220;-67
2022/04/20 12:08:41;;;;;;;8.47;4.33;;;12.30;99.90;;;;;;5092061;28;20200;-66
2022/04/20 12:11:09;;;;;;;7.20;4.23;;;12.20;99.90;;;;;;5091863;28;20269;-67
2022/04/20 12:13:37;;;;;;;6.70;4.40;;;12.30;99.90;;;;;;5091925;28;20204;-68
2022/04/20 12:16:05;;;;;;;6.37;4.50;;;12.30;99.90;;;;;;5091693;28;20200;-67
2022/04/20 12:18:35;;;;;;;7.67;4.70;;;12.30;99.90;;;;;;5091815;28;20243;-67
2022/04/20 12:21:07;;;;;;;7.20;4.60;;;12.30;99.90;;;;;;5091740;28;20549;-68
2022/04/20 12:23:35;;;;;;;6.07;4.73;;;12.30;99.90;;;;;;5091993;28;20234;-67
2022/04/20 12:26:06;;;;;;;7.40;4.83;;;12.30;99.90;;;;;;5091687;28;20210;-66
2022/04/20 12:28:41;;;;;;;6.70;4.97;;;12.30;99.90;;;;;;5091938;28;20195;-67
2022/04/20 12:31:10;;;;;;;7.23;4.77;;;12.20;99.90;;;;;;5091730;28;20192;-66
2022/04/20 12:33:38;;;;;;;7.33;4.67;;;12.20;99.90;;;;;;5091735;28;20204;-66
2022/04/20 12:36:08;;;;;;;6.37;4.93;;;12.30;99.90;;;;;;5091443;28;20211;-66
2022/04/20 12:38:47;;;;;;;6.13;4.63;;;12.30;99.90;;;;;;5091863;28;20322;-67
2022/04/20 12:41:38;;;;;;;6.67;4.47;;;12.30;99.90;;;;;;5092498;28;20198;-67
2022/04/20 12:44:38;;;;;;;8.27;4.70;;;12.40;99.90;;;;;;5095137;28;20222;-68
2022/04/20 12:47:33;;;;;;;7.73;4.63;;;12.50;99.90;;;;;;5094871;28;20609;-68
2022/04/20 12:50:24;;;;;;;7.33;4.70;;;12.50;99.90;;;;;;5095416;28;20208;-67
2022/04/20 12:52:56;;;;;;;6.30;4.40;;;12.60;99.90;;;;;;5095411;28;20219;-66
2022/04/20 12:55:23;;;;;;;9.53;4.70;;;12.70;99.90;;;;;;5095307;28;20185;-66
2022/04/20 13:03:35;;;;;;;10.93;5.10;;;12.60;99.90;;;;;;5095123;28;20229;-67
2022/04/20 13:06:03;;;;;;;6.40;4.43;;;12.60;99.90;;;;;;5095008;28;20678;-66
2022/04/20 13:08:30;;;;;;;5.27;4.10;;;12.60;99.90;;;;;;5094961;28;20200;-67
2022/04/20 13:10:58;;;;;;;7.23;4.70;;;12.50;99.90;;;;;;5095220;28;20612;-66
2022/04/20 13:13:27;;;;;;;6.93;4.97;;;12.50;99.90;;;;;;5095127;28;20243;-69
2022/04/20 13:15:54;;;;;;;8.70;4.70;;;12.40;99.90;;;;;;5094904;28;20208;-66
2022/04/20 13:18:21;;;;;;;8.63;5.03;;;12.30;99.90;;;;;;5095035;28;20220;-66
2022/04/20 13:20:49;;;;;;;6.67;4.70;;;12.20;99.90;;;;;;5095082;28;20204;-66
2022/04/20 13:23:16;;;;;;;9.57;5.00;;;12.20;99.90;;;;;;5094830;28;20657;-66
2022/04/20 13:28:29;;;;;;;8.63;5.23;;;12.00;99.90;;;;;;5094634;28;20310;-67
2022/04/20 13:30:56;;;;;;;6.70;5.10;;;11.70;99.90;;;;;;5094738;28;20307;-67
2022/04/20 13:33:23;;;;;;;8.37;5.30;;;11.60;99.90;;;;;;5094761;28;20204;-65
2022/04/20 13:35:53;;;;;;;9.23;5.67;;;11.50;99.90;;;;;;5094611;28;20211;-67
2022/04/20 13:38:20;;;;;;;9.43;5.93;;;11.50;99.90;;;;;;5094762;28;20234;-68
2022/04/20 13:40:48;;;;;;;8.23;5.50;;;11.50;99.90;;;;;;5094255;28;20210;-67